createdAt,value
2022-09-05T00:02:03.405Z,2.10
2022-09-05T00:05:16.928Z,2.10
2022-09-05T00:08:53.771Z,1.83
2022-09-05T00:11:58.210Z,1.70
2022-09-05T00:15:19.125Z,1.80
2022-09-05T00:23:19.917Z,2.05
2022-09-05T00:24:29.593Z,2.00
2022-09-05T00:26:20.150Z,2.45
2022-09-05T00:29:28.902Z,1.85
2022-09-05T00:33:16.967Z,1.92
2022-09-05T00:36:43.087Z,1.88
2022-09-05T00:39:48.580Z,2.35
2022-09-05T00:43:11.805Z,2.53
2022-09-05T00:46:28.586Z,2.50
2022-09-05T00:49:39.054Z,2.58
2022-09-05T00:53:06.311Z,2.28
2022-09-05T00:56:30.585Z,2.85
2022-09-05T01:00:03.745Z,2.33
2022-09-05T01:03:28.055Z,2.67
2022-09-05T01:06:37.626Z,2.28
2022-09-05T01:09:43.773Z,2.55
2022-09-05T01:12:55.418Z,2.50
2022-09-05T01:16:21.273Z,2.30
2022-09-05T01:19:31.124Z,1.95
2022-09-05T01:22:39.166Z,2.58
2022-09-05T01:26:05.462Z,2.15
2022-09-05T01:29:21.676Z,2.15
2022-09-05T01:32:53.085Z,2.25
2022-09-05T01:36:40.127Z,2.80
2022-09-05T01:40:11.721Z,2.97
2022-09-05T01:43:35.139Z,4.35
2022-09-05T01:46:38.777Z,2.97
2022-09-05T01:49:56.462Z,2.28
2022-09-05T01:53:09.116Z,2.40
2022-09-05T01:56:27.699Z,2.22
2022-09-05T01:59:45.875Z,2.72
2022-09-05T02:03:01.751Z,3.38
2022-09-05T02:06:34.833Z,2.42
2022-09-05T02:10:07.774Z,3.50
2022-09-05T02:13:19.043Z,2.47
2022-09-05T02:16:40.544Z,2.53
2022-09-05T02:19:49.864Z,2.30
2022-09-05T02:23:41.089Z,2.60
2022-09-05T02:26:51.437Z,2.70
2022-09-05T02:30:25.286Z,1.77
2022-09-05T02:33:32.979Z,5.32
2022-09-05T02:36:43.632Z,2.60
2022-09-05T02:45:01.853Z,2.53
2022-09-05T02:45:11.901Z,2.92
2022-09-05T02:47:37.972Z,2.78
2022-09-05T02:57:23.938Z,3.25
2022-09-05T02:57:34.735Z,2.20
2022-09-05T02:58:07.047Z,2.17
2022-09-05T03:01:44.373Z,2.38
2022-09-05T03:04:52.274Z,2.80
2022-09-05T03:08:07.478Z,3.00
2022-09-05T03:11:14.983Z,2.78
2022-09-05T03:14:44.828Z,2.60
2022-09-05T03:18:24.348Z,2.60
2022-09-05T03:21:41.558Z,2.25
2022-09-05T03:25:18.127Z,1.90
2022-09-05T03:28:19.546Z,2.53
2022-09-05T03:31:56.871Z,2.40
2022-09-05T03:35:40.547Z,2.63
2022-09-05T03:39:16.160Z,2.72
2022-09-05T03:42:39.029Z,2.38
2022-09-05T03:45:52.831Z,2.58
2022-09-05T03:50:37.193Z,2.22
2022-09-05T03:57:13.049Z,2.75
2022-09-05T03:57:13.435Z,2.30
2022-09-05T03:59:50.422Z,3.42
2022-09-05T04:07:16.283Z,2.85
2022-09-05T04:08:14.411Z,3.00
2022-09-05T04:09:56.948Z,2.60
2022-09-05T04:13:08.349Z,2.67
2022-09-05T04:16:18.295Z,1.85
2022-09-05T04:19:33.821Z,2.47
2022-09-05T04:22:50.210Z,1.98
2022-09-05T04:26:07.162Z,2.63
2022-09-05T04:29:43.546Z,2.57
2022-09-05T04:32:54.860Z,2.23
2022-09-05T04:36:02.191Z,2.20
2022-09-05T04:39:28.587Z,2.58
2022-09-05T04:42:30.198Z,2.67
2022-09-05T04:45:35.536Z,2.67
2022-09-05T04:49:06.961Z,3.15
2022-09-05T04:52:21.897Z,2.40
2022-09-05T04:55:39.188Z,2.70
2022-09-05T05:00:13.002Z,2.80
2022-09-05T05:06:12.914Z,2.33
2022-09-05T05:06:16.111Z,2.47
2022-09-05T05:09:47.978Z,2.13
2022-09-05T05:18:01.652Z,2.28
2022-09-05T05:18:08.287Z,2.92
2022-09-05T05:21:00.064Z,2.72
2022-09-05T05:24:11.288Z,2.53
2022-09-05T05:27:15.784Z,2.85
2022-09-05T05:30:25.288Z,2.60
2022-09-05T05:33:33.774Z,2.78
2022-09-05T05:36:37.166Z,2.88
2022-09-05T05:39:41.889Z,2.90
2022-09-05T05:42:44.557Z,3.78
2022-09-05T05:45:46.190Z,3.00
2022-09-05T05:48:55.654Z,2.70
2022-09-05T05:52:31.566Z,2.50
2022-09-05T05:55:51.733Z,2.63
2022-09-05T05:59:24.654Z,3.08
2022-09-05T06:02:37.143Z,2.22
2022-09-05T06:06:03.693Z,2.58
2022-09-05T06:13:40.352Z,2.70
2022-09-05T06:15:07.082Z,2.90
2022-09-05T06:17:08.198Z,2.63
2022-09-05T06:22:04.632Z,2.75
2022-09-05T06:24:21.194Z,2.45
2022-09-05T06:28:18.735Z,2.17
2022-09-05T06:31:42.143Z,2.65
2022-09-05T06:34:55.196Z,2.90
2022-09-05T06:38:04.709Z,2.65
2022-09-05T06:41:25.960Z,2.67
2022-09-05T06:44:33.222Z,2.70
2022-09-05T06:47:35.810Z,2.83
2022-09-05T06:51:07.079Z,2.85
2022-09-05T06:54:09.000Z,2.33
2022-09-05T06:57:44.665Z,3.17
2022-09-05T07:00:50.299Z,3.35
2022-09-05T07:05:05.224Z,3.58
2022-09-05T07:07:40.329Z,3.35
2022-09-05T07:11:04.225Z,3.38
2022-09-05T07:14:25.190Z,3.15
2022-09-05T07:17:53.566Z,2.38
2022-09-05T07:21:17.708Z,2.17
2022-09-05T07:24:37.502Z,2.00
2022-09-05T07:28:26.100Z,2.28
2022-09-05T07:31:37.393Z,2.33
2022-09-05T07:34:39.739Z,2.22
2022-09-05T07:37:42.050Z,2.22
2022-09-05T07:40:54.109Z,2.25
2022-09-05T07:47:06.156Z,2.38
2022-09-05T07:52:19.119Z,2.15
2022-09-05T07:57:03.160Z,2.15
2022-09-05T08:00:29.329Z,1.90
2022-09-05T08:03:31.290Z,2.20
2022-09-05T08:07:25.668Z,2.08
2022-09-05T08:10:10.683Z,2.67
2022-09-05T08:13:24.788Z,2.30
2022-09-05T08:16:29.033Z,2.70
2022-09-05T08:19:36.788Z,2.40
2022-09-05T08:22:52.531Z,5.00
2022-09-05T08:26:13.826Z,2.10
2022-09-05T08:29:39.722Z,1.83
2022-09-05T08:32:49.491Z,1.98
2022-09-05T08:36:00.749Z,1.65
2022-09-05T08:39:03.702Z,1.67
2022-09-05T08:42:49.412Z,1.90
2022-09-05T08:46:44.171Z,1.58
2022-09-05T08:50:11.848Z,1.70
2022-09-05T08:53:46.454Z,1.65
2022-09-05T08:56:57.271Z,1.70
2022-09-05T09:00:19.017Z,1.80
2022-09-05T09:03:37.686Z,1.60
2022-09-05T09:07:36.805Z,1.48
2022-09-05T09:10:50.190Z,1.60
2022-09-05T09:13:55.481Z,1.60
2022-09-05T09:17:02.283Z,2.05
2022-09-05T09:20:26.719Z,2.00
2022-09-05T09:23:46.904Z,1.58
2022-09-05T09:27:00.282Z,1.50
2022-09-05T09:30:04.364Z,1.65
2022-09-05T09:33:06.230Z,2.63
2022-09-05T09:36:22.291Z,1.50
2022-09-05T09:39:39.766Z,1.27
2022-09-05T09:42:47.861Z,1.45
2022-09-05T09:46:01.295Z,1.70
2022-09-05T09:49:27.739Z,1.60
2022-09-05T09:52:40.189Z,1.45
2022-09-05T09:56:00.097Z,1.67
2022-09-05T09:59:16.436Z,1.35
2022-09-05T10:04:36.680Z,1.95
2022-09-05T10:10:48.637Z,1.45
2022-09-05T10:10:56.269Z,1.60
2022-09-05T10:14:47.608Z,1.65
2022-09-05T10:17:56.670Z,1.60
2022-09-05T10:21:17.086Z,1.42
2022-09-05T10:24:21.904Z,1.75
2022-09-05T10:27:44.582Z,1.40
2022-09-05T10:32:56.048Z,1.40
2022-09-05T10:35:17.913Z,1.20
2022-09-05T10:37:46.520Z,1.25
2022-09-05T10:41:21.340Z,1.95
2022-09-05T10:44:13.521Z,1.60
2022-09-05T10:47:33.887Z,1.42
2022-09-05T10:50:41.238Z,1.63
2022-09-05T10:53:50.373Z,1.40
2022-09-05T10:57:07.083Z,1.67
2022-09-05T11:02:24.863Z,1.60
2022-09-05T11:03:50.247Z,1.50
2022-09-05T11:06:54.144Z,1.60
2022-09-05T11:10:10.990Z,1.90
2022-09-05T11:13:46.903Z,1.63
2022-09-05T11:16:52.558Z,1.50
2022-09-05T11:20:30.304Z,2.67
2022-09-05T11:23:40.413Z,1.52
2022-09-05T11:26:52.960Z,1.55
2022-09-05T11:30:30.223Z,1.40
2022-09-05T11:39:46.111Z,1.65
2022-09-05T11:40:07.047Z,1.25
2022-09-05T11:41:34.487Z,1.50
2022-09-05T11:44:57.568Z,1.40
2022-09-05T11:48:17.479Z,1.52
2022-09-05T11:51:37.490Z,1.40
2022-09-05T11:55:21.177Z,1.63
2022-09-05T11:58:44.635Z,1.45
2022-09-05T12:02:23.404Z,1.40
2022-09-05T12:06:06.161Z,1.63
2022-09-05T12:09:45.402Z,1.55
2022-09-05T12:12:49.703Z,1.52
2022-09-05T12:16:07.428Z,1.50
2022-09-05T12:19:34.972Z,1.90
2022-09-05T12:22:37.535Z,1.50
2022-09-05T12:27:41.715Z,2.08
2022-09-05T12:29:33.601Z,1.60
2022-09-05T12:36:01.710Z,1.60
2022-09-05T12:40:48.317Z,1.40
2022-09-05T12:40:55.325Z,1.23
2022-09-05T12:43:33.485Z,1.60
2022-09-05T12:46:46.735Z,1.70
2022-09-05T12:50:03.582Z,1.38
2022-09-05T12:53:21.126Z,1.48
2022-09-05T13:01:05.192Z,1.20
2022-09-05T13:03:01.347Z,1.30
2022-09-05T13:04:15.839Z,1.52
2022-09-05T13:07:16.302Z,1.55
2022-09-05T13:14:50.516Z,1.42
2022-09-05T13:15:07.873Z,1.40
2022-09-05T13:17:16.735Z,1.20
2022-09-05T13:20:32.473Z,1.58
2022-09-05T13:23:39.862Z,1.30
2022-09-05T13:27:07.236Z,1.20
2022-09-05T13:33:11.828Z,1.40
2022-09-05T13:38:05.343Z,1.35
2022-09-05T13:38:20.786Z,1.20
2022-09-05T13:40:46.159Z,1.23
2022-09-05T13:43:47.732Z,1.50
2022-09-05T13:47:28.878Z,1.50
2022-09-05T13:50:29.323Z,1.40
2022-09-05T13:53:51.710Z,1.30
2022-09-05T13:57:01.452Z,1.50
2022-09-05T14:00:15.321Z,1.30
2022-09-05T14:03:58.355Z,1.35
2022-09-05T14:10:55.007Z,1.33
2022-09-05T14:14:13.257Z,1.60
2022-09-05T14:21:02.644Z,1.60
2022-09-05T14:24:25.965Z,1.25
2022-09-05T14:27:32.131Z,1.48
2022-09-05T14:36:20.130Z,1.65
2022-09-05T14:37:46.363Z,2.05
2022-09-05T14:38:16.410Z,1.60
2022-09-05T14:41:48.778Z,1.75
2022-09-05T14:45:37.079Z,1.70
2022-09-05T14:49:10.838Z,1.80
2022-09-05T14:52:29.261Z,1.42
2022-09-05T14:55:31.037Z,1.75
2022-09-05T15:02:41.334Z,1.85
2022-09-05T15:02:54.995Z,1.40
2022-09-05T15:05:15.956Z,1.70
2022-09-05T15:11:24.828Z,1.50
2022-09-05T15:12:21.163Z,1.30
2022-09-05T15:15:29.059Z,1.90
2022-09-05T15:18:37.130Z,1.67
2022-09-05T15:21:41.151Z,1.45
2022-09-05T15:24:42.747Z,1.77
2022-09-05T15:27:45.728Z,1.77
2022-09-05T15:31:05.044Z,1.63
2022-09-05T15:34:20.114Z,1.40
2022-09-05T15:37:29.757Z,1.50
2022-09-05T15:40:31.314Z,1.45
2022-09-05T15:43:32.831Z,1.60
2022-09-05T15:46:37.193Z,1.63
2022-09-05T15:49:42.982Z,1.65
2022-09-05T15:52:47.179Z,1.20
2022-09-05T15:56:00.987Z,1.77
2022-09-05T15:59:03.099Z,1.52
2022-09-05T16:02:09.683Z,1.38
2022-09-05T16:09:06.067Z,1.58
2022-09-05T16:10:46.155Z,1.88
2022-09-05T16:12:14.165Z,1.60
2022-09-05T16:21:02.382Z,1.38
2022-09-05T16:23:17.947Z,1.35
2022-09-05T16:23:28.096Z,1.50
2022-09-05T16:25:59.511Z,1.30
2022-09-05T16:29:12.884Z,1.50
2022-09-05T16:32:21.382Z,1.10
2022-09-05T16:35:26.540Z,1.23
2022-09-05T16:38:49.049Z,1.52
2022-09-05T16:42:10.894Z,1.50
2022-09-05T16:45:21.823Z,1.45
2022-09-05T16:49:02.637Z,1.55
2022-09-05T16:52:17.794Z,1.50
2022-09-05T16:55:32.586Z,1.65
2022-09-05T16:58:41.511Z,1.63
2022-09-05T17:02:08.762Z,1.40
2022-09-05T17:05:20.547Z,1.50
2022-09-05T17:08:28.855Z,1.90
2022-09-05T17:11:31.705Z,1.67
2022-09-05T17:14:35.323Z,1.75
2022-09-05T17:18:20.789Z,1.67
2022-09-05T17:21:10.666Z,1.50
2022-09-05T17:29:17.918Z,1.90
2022-09-05T17:29:49.643Z,1.50
2022-09-05T17:34:49.698Z,1.90
2022-09-05T17:38:12.170Z,1.70
2022-09-05T17:41:16.746Z,2.08
2022-09-05T17:44:27.608Z,1.80
2022-09-05T17:47:35.689Z,2.00
2022-09-05T17:50:51.060Z,1.63
2022-09-05T17:54:08.601Z,1.73
2022-09-05T17:57:28.126Z,2.08
2022-09-05T18:00:48.807Z,2.08
2022-09-05T18:03:50.428Z,1.80
2022-09-05T18:10:27.697Z,2.10
2022-09-05T18:13:52.906Z,1.83
2022-09-05T18:17:36.038Z,2.30
2022-09-05T18:23:43.717Z,2.10
2022-09-05T18:26:48.898Z,1.98
2022-09-05T18:30:33.220Z,2.40
2022-09-05T18:33:56.353Z,2.92
2022-09-05T18:36:56.853Z,2.20
2022-09-05T18:40:09.527Z,2.30
2022-09-05T18:43:26.909Z,3.00
2022-09-05T18:46:31.205Z,2.60
2022-09-05T18:50:24.138Z,2.10
2022-09-05T18:53:10.365Z,2.30
2022-09-05T18:57:03.050Z,2.00
2022-09-05T19:00:09.376Z,2.10
2022-09-05T19:03:27.416Z,2.20
2022-09-05T19:06:35.751Z,2.10
2022-09-05T19:09:58.423Z,2.45
2022-09-05T19:13:03.544Z,1.98
2022-09-05T19:16:42.417Z,2.63
2022-09-05T19:20:31.607Z,2.35
2022-09-05T19:23:33.690Z,2.10
2022-09-05T19:26:35.199Z,2.55
2022-09-05T19:36:50.677Z,2.97
2022-09-05T19:37:11.974Z,2.25
2022-09-05T19:37:23.932Z,2.42
2022-09-05T19:47:29.656Z,2.47
2022-09-05T19:47:37.700Z,2.22
2022-09-05T19:47:40.432Z,2.53
2022-09-05T19:50:11.214Z,2.25
2022-09-05T19:53:15.297Z,2.15
2022-09-05T19:56:16.876Z,2.65
2022-09-05T19:59:23.003Z,2.58
2022-09-05T20:02:29.874Z,2.55
2022-09-05T20:05:31.506Z,2.47
2022-09-05T20:08:34.465Z,2.75
2022-09-05T20:11:46.014Z,2.95
2022-09-05T20:14:48.226Z,2.50
2022-09-05T20:17:53.812Z,2.83
2022-09-05T20:21:05.641Z,2.40
2022-09-05T20:24:07.182Z,2.67
2022-09-05T20:27:08.758Z,2.60
2022-09-05T20:30:15.791Z,3.30
2022-09-05T20:33:32.264Z,2.67
2022-09-05T20:43:18.357Z,2.78
2022-09-05T20:43:18.454Z,2.40
2022-09-05T20:43:50.280Z,2.30
2022-09-05T20:54:09.234Z,2.33
2022-09-05T20:54:15.418Z,2.83
2022-09-05T20:54:19.412Z,3.33
2022-09-05T20:57:17.046Z,2.75
2022-09-05T21:00:22.460Z,2.60
2022-09-05T21:03:28.194Z,2.30
2022-09-05T21:06:36.044Z,2.70
2022-09-05T21:09:56.653Z,2.53
2022-09-05T21:12:58.217Z,2.95
2022-09-05T21:15:59.810Z,3.10
2022-09-05T21:19:01.430Z,3.60
2022-09-05T21:22:04.637Z,2.92
2022-09-05T21:25:14.977Z,3.08
2022-09-05T21:28:36.351Z,2.78
2022-09-05T21:31:54.559Z,2.95
2022-09-05T21:34:58.869Z,2.70
2022-09-05T21:41:04.034Z,2.90
2022-09-05T21:47:33.661Z,3.15
2022-09-05T21:47:39.037Z,3.13
2022-09-05T21:50:59.380Z,2.95
2022-09-05T21:59:19.003Z,2.90
2022-09-05T21:59:19.175Z,2.60
2022-09-05T22:00:54.277Z,2.80
2022-09-05T22:03:58.191Z,3.00
2022-09-05T22:06:59.700Z,2.75
2022-09-05T22:10:05.496Z,2.78
2022-09-05T22:13:07.014Z,2.75
2022-09-05T22:16:09.263Z,2.38
2022-09-05T22:19:10.782Z,2.63
2022-09-05T22:22:17.119Z,2.25
2022-09-05T22:25:27.764Z,2.50
2022-09-05T22:28:33.883Z,2.63
2022-09-05T22:31:36.226Z,3.28
2022-09-05T22:34:37.791Z,2.80
2022-09-05T22:37:39.906Z,2.92
2022-09-05T22:40:41.649Z,2.33
2022-09-05T22:43:43.230Z,2.70
2022-09-05T22:46:44.772Z,2.80
2022-09-05T22:49:46.390Z,2.45
2022-09-05T22:52:47.943Z,2.90
2022-09-05T22:56:05.747Z,3.17
2022-09-05T22:59:07.926Z,2.83
2022-09-05T23:02:09.579Z,2.70
2022-09-05T23:05:11.234Z,3.20
2022-09-05T23:08:12.743Z,3.15
2022-09-05T23:11:15.482Z,3.58
2022-09-05T23:14:16.982Z,2.85
2022-09-05T23:17:18.501Z,3.13
2022-09-05T23:20:20.062Z,3.22
2022-09-05T23:23:21.709Z,2.75
2022-09-05T23:26:23.537Z,3.15
2022-09-05T23:29:25.267Z,2.80
2022-09-05T23:32:26.767Z,2.47
2022-09-05T23:35:28.333Z,4.10
2022-09-05T23:38:29.981Z,2.60
2022-09-05T23:41:31.830Z,3.13
2022-09-05T23:44:33.359Z,3.15
2022-09-05T23:47:35.738Z,3.13
2022-09-05T23:50:37.282Z,2.78
2022-09-05T23:53:39.126Z,3.03
2022-09-05T23:56:40.656Z,3.05
2022-09-05T23:59:42.215Z,2.38
